Moffett Field, CA

3:23 PM PDT op 22 oktober 2014 (GMT -0700)
Moffett Federal Air Field | Change Station
CLOSE
Current Station
Luchthaven
Location: Moffett NAS,
Geometrische hoogte: 39 ft
Nabije weerstations

Hoogte 39 ft 37.41 °N, 122.05 °W | Updated 27 minutes ago

Helder
Helder
73 °F
Voelt als 73 °F
N
8
Wind Variabel Wind van NNW

Vandaag
Hoog -- | Laag -- °F
--% Kans op neerslag
Gisteren
Hoog -- | Laag -- °F
Precip. -- inches
7:23 AM 6:21 PM
Afnemende halvemaan, 1% visible
Druk 30.04 inches
Zicht 10.0 mijlen
Wolken Helder
Dauwpunt 48 °F
Vochtigheid 41%
Neerslag 0.00 inches
Dikte sneeuw Niet beschikbaar.
UV 4 van de 12
Pollen 2.40 van de 12
Ozon Goed
PM2.5 Goed
Flu Activity Sporadic
METAR KNUQ 222156Z 33007KT 10SM CLR 23/09 A3003 RMK AO2 SLP172 T02280089

More Conditions Fewer Conditions

Druk 30.04 inches
Zicht 10.0 mijlen
Wolken Helder
Dauwpunt 48 °F
Vochtigheid 41%
Neerslag 0.00 inches
Dikte sneeuw Niet beschikbaar.
UV 4 van de 12
Pollen 2.40 van de 12
Ozon Goed
PM2.5 Goed
Flu Activity Sporadic
METAR KNUQ 222156Z 33007KT 10SM CLR 23/09 A3003 RMK AO2 SLP172 T02280089

More Conditions Fewer Conditions

10-Day Weather Forecast

Almanac

Astronomie

Oct. 22, 2014 Opkomst Ondergang
Werkelijke tijd 7:23 AM PDT 6:21 PM PDT
Burgerlijke schemering 6:56 AM PDT 6:48 PM PDT
Nautische schemering 6:25 AM PDT 7:18 PM PDT
Astronomische schemering 5:55 AM PDT 7:48 PM PDT
Maan 6:10 AM PDT 5:50 PM PDT
Golflengte van het zichtbare licht 11h 51m
Daglengte
10h 58m
Tomorrow will be 2m 14s shorter.
Afnemende halvemaan, 1% of the Moon is Illuminated
Vandaag
Afnemende halvemaan
oktober 23
Nieuw
oktober 30
Eerste kwartier
nov 6
Volle maan
nov 14
Laatste kwartier

Extremen vandaag

State Highs State Lows

Community

WunderPhotos

Upload Photos

1,764,064 foto’s ge-upload!

WunderBlogs® & News

Nearby

Luchtkwaliteit

  Luchtkwaliteit LK-index Verontreinigende stof
Gisteren Goed
OZONE
Gisteren Goed
PM2.5
Actueel Goed
PM2.5
Actueel Goed
OZONE
woensdag Goed
OZONE
donderdag Goed
OZONE
vrijdag Goed
OZONE
zaterdag Goed
PM2.5
zondag Goed
PM2.5
maandag Goed
PM2.5

Dikte sneeuw

Station Depth Geometrische hoogte
Blue Lakes 0 in 8000 ft
Rubicon #2 0 in 7500 ft
Summit Meadow 0 in 9122 ft
Ward Creek #3 0 in 6750 ft
Tahoe City Cross 0 in 6750 ft

Aardbevingen

Stad Distance Mag. Time & Date
No recent earthquake activity has been reported nearby.
Minimum magnitude displayed is 2.5.

Watertemperatuur langs de kust

Plaats Temperatuur
Geen meldingen van stations

Nabije weerstations